Data Viewer
| City | State | Eastern Time | Source | Temp | DewPt | RH | BP | 5 Min Precip | Wind Speed | Wind Dir | 5 Min Wind Max | 5 Min Wind Max Dir |
|---|---|---|---|---|---|---|---|---|---|---|---|---|
| West Cape May | NJ | 2026-05-03 18:20 | Mesonet | 59 | 33 | 37 | 0.00 | 12 | WNW | 16 | NW | |
| West Cape May | NJ | 2026-05-04 10:10 | Mesonet | 61 | 50 | 67 | 0.00 | 4 | SE | 10 | SSE | |
| West Cape May | NJ | 2026-05-04 10:40 | Mesonet | 61 | 51 | 70 | 0.00 | 5 | S | 8 | S | |
| West Cape May | NJ | 2026-05-04 10:35 | Mesonet | 61 | 51 | 69 | 0.00 | 3 | S | 9 | S | |
| West Cape May | NJ | 2026-05-04 10:30 | Mesonet | 61 | 49 | 64 | 0.00 | 5 | S | 11 | SSE | |
| West Cape May | NJ | 2026-05-04 10:25 | Mesonet | 61 | 50 | 66 | 0.00 | 3 | SSE | 9 | SW | |
| West Cape May | NJ | 2026-05-04 10:20 | Mesonet | 61 | 50 | 67 | 0.00 | 7 | SSE | 11 | SW | |
| West Cape May | NJ | 2026-05-04 10:15 | Mesonet | 61 | 51 | 70 | 0.00 | 0 | SW | 10 | SSE | |
| West Cape May | NJ | 2026-05-04 10:05 | Mesonet | 61 | 49 | 64 | 0.00 | 1 | SSW | 11 | SSE | |
| West Cape May | NJ | 2026-05-04 10:50 | Mesonet | 60 | 51 | 72 | 0.00 | 5 | S | 11 | SSE | |
| West Cape May | NJ | 2026-05-04 10:00 | Mesonet | 61 | 48 | 63 | 0.00 | 11 | S | 12 | S | |
| West Cape May | NJ | 2026-05-04 09:55 | Mesonet | 61 | 49 | 63 | 0.00 | 4 | S | 9 | SSE | |
| West Cape May | NJ | 2026-05-04 09:50 | Mesonet | 60 | 49 | 65 | 0.00 | 2 | SSW | 10 | SSE | |
| West Cape May | NJ | 2026-05-04 09:45 | Mesonet | 60 | 48 | 64 | 0.00 | 7 | SSW | 11 | W | |
| West Cape May | NJ | 2026-05-04 09:40 | Mesonet | 60 | 49 | 66 | 0.00 | 5 | WSW | 11 | SW | |
| West Cape May | NJ | 2026-05-04 09:35 | Mesonet | 60 | 48 | 65 | 0.00 | 5 | SSW | 8 | S | |
| West Cape May | NJ | 2026-05-04 10:45 | Mesonet | 61 | 51 | 71 | 0.00 | 0 | SW | 10 | SSW | |
| West Cape May | NJ | 2026-05-04 10:55 | Mesonet | 60 | 52 | 73 | 0.00 | 3 | SE | 11 | SSE | |
| West Cape May | NJ | 2026-05-04 09:25 | Mesonet | 60 | 48 | 66 | 0.00 | 5 | SSE | 11 | SSE | |
| West Cape May | NJ | 2026-05-04 11:40 | Mesonet | 60 | 52 | 75 | 0.00 | 6 | S | 10 | SSE | |
| West Cape May | NJ | 2026-05-04 12:10 | Mesonet | 60 | 52 | 74 | 0.00 | 5 | SSE | 12 | SSE | |
| West Cape May | NJ | 2026-05-04 12:05 | Mesonet | 61 | 52 | 73 | 0.00 | 6 | SSE | 10 | SSE | |
| West Cape May | NJ | 2026-05-04 12:00 | Mesonet | 60 | 52 | 75 | 0.00 | 4 | SSE | 12 | SSE | |
| West Cape May | NJ | 2026-05-04 11:55 | Mesonet | 60 | 52 | 73 | 0.00 | 4 | SSE | 12 | S | |
| West Cape May | NJ | 2026-05-04 11:50 | Mesonet | 60 | 52 | 75 | 0.00 | 5 | SSE | 14 | SSE | |
| West Cape May | NJ | 2026-05-04 11:45 | Mesonet | 61 | 52 | 74 | 0.00 | 7 | SSE | 11 | SSE | |
| West Cape May | NJ | 2026-05-04 11:35 | Mesonet | 60 | 52 | 75 | 0.00 | 11 | SSE | 11 | SSE | |
| West Cape May | NJ | 2026-05-04 11:00 | Mesonet | 60 | 51 | 72 | 0.00 | 5 | S | 11 | S | |
| West Cape May | NJ | 2026-05-04 11:30 | Mesonet | 60 | 52 | 74 | 0.00 | 9 | SE | 11 | SE | |
| West Cape May | NJ | 2026-05-04 11:25 | Mesonet | 61 | 52 | 73 | 0.00 | 5 | S | 11 | SSE | |
| West Cape May | NJ | 2026-05-04 11:20 | Mesonet | 61 | 52 | 72 | 0.00 | 5 | S | 11 | SE | |
| West Cape May | NJ | 2026-05-04 11:15 | Mesonet | 62 | 53 | 73 | 0.00 | 0 | SE | 13 | S | |
| West Cape May | NJ | 2026-05-04 11:10 | Mesonet | 61 | 52 | 73 | 0.00 | 2 | ESE | 9 | SSE | |
| West Cape May | NJ | 2026-05-04 11:05 | Mesonet | 60 | 52 | 74 | 0.00 | 7 | S | 10 | S | |
| West Cape May | NJ | 2026-05-04 09:30 | Mesonet | 60 | 49 | 67 | 0.00 | 0 | SSW | 8 | SSW | |
| West Cape May | NJ | 2026-05-04 09:20 | Mesonet | 60 | 48 | 65 | 0.00 | 7 | SSE | 10 | S | |
| West Cape May | NJ | 2026-05-04 12:20 | Mesonet | 60 | 52 | 73 | 0.00 | 7 | SSE | 13 | S | |
| West Cape May | NJ | 2026-05-04 07:10 | Mesonet | 54 | 46 | 73 | 0.00 | 5 | WSW | 8 | WNW | |
| West Cape May | NJ | 2026-05-04 07:40 | Mesonet | 55 | 46 | 73 | 0.00 | 0 | WSW | 7 | WNW | |
| West Cape May | NJ | 2026-05-04 07:35 | Mesonet | 54 | 46 | 73 | 0.00 | 4 | SSW | 9 | SSW | |
| West Cape May | NJ | 2026-05-04 07:30 | Mesonet | 54 | 46 | 73 | 0.00 | 0 | W | 6 | WNW | |
| West Cape May | NJ | 2026-05-04 07:25 | Mesonet | 54 | 46 | 73 | 0.00 | 0 | WSW | 5 | SSE | |
| West Cape May | NJ | 2026-05-04 07:20 | Mesonet | 54 | 46 | 73 | 0.00 | 0 | WSW | 8 | W | |
| West Cape May | NJ | 2026-05-04 07:15 | Mesonet | 54 | 46 | 73 | 0.00 | 5 | S | 6 | SSW | |
| West Cape May | NJ | 2026-05-04 07:05 | Mesonet | 54 | 46 | 74 | 0.00 | 4 | W | 9 | WNW | |
| West Cape May | NJ | 2026-05-04 07:50 | Mesonet | 55 | 46 | 72 | 0.00 | 5 | WSW | 11 | WSW | |
| West Cape May | NJ | 2026-05-04 07:00 | Mesonet | 54 | 46 | 74 | 0.00 | 0 | W | 10 | W | |
| West Cape May | NJ | 2026-05-04 06:55 | Mesonet | 54 | 46 | 74 | 0.00 | 3 | WNW | 9 | W | |
| West Cape May | NJ | 2026-05-04 06:50 | Mesonet | 54 | 46 | 74 | 0.00 | 0 | WSW | 10 | WSW | |
| West Cape May | NJ | 2026-05-04 06:45 | Mesonet | 54 | 45 | 73 | 0.00 | 4 | WSW | 10 | WSW | |
| West Cape May | NJ | 2026-05-04 06:40 | Mesonet | 54 | 45 | 73 | 0.00 | 5 | WSW | 9 | W | |
| West Cape May | NJ | 2026-05-04 06:35 | Mesonet | 54 | 45 | 73 | 0.00 | 4 | W | 9 | WNW | |
| West Cape May | NJ | 2026-05-04 07:45 | Mesonet | 55 | 46 | 72 | 0.00 | 4 | SW | 7 | WSW | |
| West Cape May | NJ | 2026-05-04 07:55 | Mesonet | 55 | 46 | 71 | 0.00 | 5 | WSW | 7 | WSW | |
| West Cape May | NJ | 2026-05-04 09:15 | Mesonet | 60 | 48 | 66 | 0.00 | 4 | SSE | 11 | SSW | |
| West Cape May | NJ | 2026-05-04 08:40 | Mesonet | 59 | 48 | 66 | 0.00 | 0 | SSE | 11 | SSE | |
| West Cape May | NJ | 2026-05-04 09:10 | Mesonet | 60 | 47 | 64 | 0.00 | 4 | S | 10 | W | |
| West Cape May | NJ | 2026-05-04 09:05 | Mesonet | 59 | 48 | 66 | 0.00 | 2 | SSW | 11 | S | |
| West Cape May | NJ | 2026-05-04 09:00 | Mesonet | 59 | 47 | 66 | 0.00 | 3 | S | 11 | SSE | |
| West Cape May | NJ | 2026-05-04 08:55 | Mesonet | 59 | 48 | 66 | 0.00 | 5 | S | 10 | S | |
| West Cape May | NJ | 2026-05-04 08:50 | Mesonet | 59 | 48 | 67 | 0.00 | 5 | WSW | 10 | WSW | |
| West Cape May | NJ | 2026-05-04 08:45 | Mesonet | 59 | 48 | 66 | 0.00 | 4 | SW | 10 | SSE | |
| West Cape May | NJ | 2026-05-04 08:35 | Mesonet | 59 | 48 | 67 | 0.00 | 8 | S | 10 | WSW | |
| West Cape May | NJ | 2026-05-04 08:00 | Mesonet | 56 | 46 | 71 | 0.00 | 3 | WSW | 9 | WNW | |
| West Cape May | NJ | 2026-05-04 08:30 | Mesonet | 58 | 47 | 67 | 0.00 | 4 | WSW | 8 | S | |
| West Cape May | NJ | 2026-05-04 08:25 | Mesonet | 58 | 47 | 67 | 0.00 | 2 | WSW | 9 | SSW | |
| West Cape May | NJ | 2026-05-04 08:20 | Mesonet | 58 | 47 | 67 | 0.00 | 6 | SW | 8 | SSE | |
| West Cape May | NJ | 2026-05-04 08:15 | Mesonet | 57 | 47 | 68 | 0.00 | 6 | WSW | 10 | S | |
| West Cape May | NJ | 2026-05-04 08:10 | Mesonet | 57 | 47 | 69 | 0.00 | 2 | SE | 7 | SSW | |
| West Cape May | NJ | 2026-05-04 08:05 | Mesonet | 56 | 47 | 70 | 0.00 | 4 | SSW | 7 | S | |
| West Cape May | NJ | 2026-05-04 12:15 | Mesonet | 61 | 52 | 72 | 0.00 | 8 | SSE | 12 | SSE | |
| West Cape May | NJ | 2026-05-04 12:25 | Mesonet | 61 | 53 | 73 | 0.00 | 9 | S | 11 | S | |
| West Cape May | NJ | 2026-05-04 06:25 | Mesonet | 53 | 45 | 73 | 0.00 | 3 | W | 9 | SSW | |
| West Cape May | NJ | 2026-05-04 16:15 | Mesonet | 62 | 53 | 72 | 0.00 | 7 | SSE | 11 | SSE | |
| West Cape May | NJ | 2026-05-04 16:45 | Mesonet | 62 | 52 | 70 | 0.00 | 11 | SSE | 11 | SE | |
| West Cape May | NJ | 2026-05-04 16:40 | Mesonet | 62 | 53 | 71 | 0.00 | 4 | SSE | 12 | S | |
| West Cape May | NJ | 2026-05-04 16:35 | Mesonet | 62 | 53 | 71 | 0.00 | 8 | SSE | 11 | SSE | |
| West Cape May | NJ | 2026-05-04 16:30 | Mesonet | 63 | 53 | 70 | 0.00 | 8 | SSE | 12 | S | |
| West Cape May | NJ | 2026-05-04 16:25 | Mesonet | 63 | 53 | 71 | 0.00 | 2 | SE | 11 | S | |
| West Cape May | NJ | 2026-05-04 16:20 | Mesonet | 62 | 53 | 73 | 0.00 | 3 | SSE | 15 | SE | |
| West Cape May | NJ | 2026-05-04 16:10 | Mesonet | 62 | 53 | 73 | 0.00 | 11 | S | 15 | S | |
| West Cape May | NJ | 2026-05-04 16:55 | Mesonet | 62 | 53 | 72 | 0.00 | 5 | SSE | 13 | S | |
| West Cape May | NJ | 2026-05-04 16:05 | Mesonet | 61 | 53 | 74 | 0.00 | 10 | SE | 14 | SSE | |
| West Cape May | NJ | 2026-05-04 16:00 | Mesonet | 61 | 53 | 73 | 0.00 | 6 | S | 12 | ESE | |
| West Cape May | NJ | 2026-05-04 15:55 | Mesonet | 62 | 53 | 73 | 0.00 | 5 | SE | 12 | S | |
| West Cape May | NJ | 2026-05-04 15:50 | Mesonet | 62 | 53 | 73 | 0.00 | 7 | S | 11 | S | |
| West Cape May | NJ | 2026-05-04 15:45 | Mesonet | 61 | 52 | 73 | 0.00 | 7 | SSE | 13 | SSE | |
| West Cape May | NJ | 2026-05-04 15:40 | Mesonet | 62 | 53 | 73 | 0.00 | 5 | SSE | 15 | SSE | |
| West Cape May | NJ | 2026-05-04 16:50 | Mesonet | 62 | 52 | 71 | 0.00 | 6 | SSE | 14 | S | |
| West Cape May | NJ | 2026-05-04 17:00 | Mesonet | 62 | 53 | 71 | 0.00 | 5 | SE | 12 | S | |
| West Cape May | NJ | 2026-05-04 15:30 | Mesonet | 61 | 53 | 74 | 0.00 | 5 | SE | 12 | SSE | |
| West Cape May | NJ | 2026-05-04 17:45 | Mesonet | 63 | 52 | 67 | 0.00 | 7 | S | 11 | SSE | |
| West Cape May | NJ | 2026-05-04 18:15 | Mesonet | 63 | 51 | 66 | 0.00 | 8 | SSW | 16 | S | |
| West Cape May | NJ | 2026-05-04 18:10 | Mesonet | 63 | 52 | 67 | 0.00 | 5 | SSE | 13 | S | |
| West Cape May | NJ | 2026-05-04 18:05 | Mesonet | 63 | 52 | 67 | 0.00 | 4 | SE | 10 | SSE | |
| West Cape May | NJ | 2026-05-04 18:00 | Mesonet | 63 | 52 | 68 | 0.00 | 6 | SSW | 13 | S | |
| West Cape May | NJ | 2026-05-04 17:55 | Mesonet | 63 | 52 | 67 | 0.00 | 5 | SSE | 11 | S | |
| West Cape May | NJ | 2026-05-04 17:50 | Mesonet | 63 | 52 | 67 | 0.00 | 4 | S | 12 | SSE | |
| West Cape May | NJ | 2026-05-04 17:40 | Mesonet | 63 | 52 | 67 | 0.00 | 9 | SSE | 13 | SSE | |
| West Cape May | NJ | 2026-05-04 17:05 | Mesonet | 62 | 53 | 71 | 0.00 | 10 | S | 12 | SSE | |
| West Cape May | NJ | 2026-05-04 17:35 | Mesonet | 63 | 52 | 67 | 0.00 | 5 | SSW | 9 | SSE | |
| West Cape May | NJ | 2026-05-04 17:30 | Mesonet | 63 | 52 | 67 | 0.00 | 5 | SSE | 10 | SSE | |
| West Cape May | NJ | 2026-05-04 17:25 | Mesonet | 63 | 52 | 68 | 0.00 | 7 | SSE | 10 | SSE | |
| West Cape May | NJ | 2026-05-04 17:20 | Mesonet | 63 | 53 | 69 | 0.00 | 4 | S | 11 | SSE | |
| West Cape May | NJ | 2026-05-04 17:15 | Mesonet | 63 | 52 | 69 | 0.00 | 5 | SE | 11 | SSE | |
| West Cape May | NJ | 2026-05-04 17:10 | Mesonet | 63 | 53 | 70 | 0.00 | 5 | SE | 13 | SSE | |
| West Cape May | NJ | 2026-05-04 15:35 | Mesonet | 62 | 53 | 72 | 0.00 | 10 | SSE | 12 | S | |
| West Cape May | NJ | 2026-05-04 15:25 | Mesonet | 61 | 53 | 73 | 0.00 | 8 | SSE | 12 | SSW | |
| West Cape May | NJ | 2026-05-04 12:30 | Mesonet | 60 | 51 | 72 | 0.00 | 7 | SSE | 11 | S | |
| West Cape May | NJ | 2026-05-04 13:10 | Mesonet | 60 | 52 | 73 | 0.00 | 10 | SSE | 12 | S | |
| West Cape May | NJ | 2026-05-04 13:40 | Mesonet | 61 | 52 | 74 | 0.00 | 5 | SE | 9 | SSE | |
| West Cape May | NJ | 2026-05-04 13:35 | Mesonet | 61 | 52 | 73 | 0.00 | 6 | SSE | 11 | SSE | |
| West Cape May | NJ | 2026-05-04 13:30 | Mesonet | 60 | 52 | 74 | 0.00 | 5 | SSE | 10 | SSE | |
| West Cape May | NJ | 2026-05-04 13:25 | Mesonet | 60 | 52 | 73 | 0.00 | 6 | SW | 13 | S | |
| West Cape May | NJ | 2026-05-04 13:20 | Mesonet | 60 | 52 | 73 | 0.00 | 5 | SE | 13 | SSE | |
| West Cape May | NJ | 2026-05-04 13:15 | Mesonet | 61 | 52 | 73 | 0.00 | 9 | SSE | 11 | SSE | |
| West Cape May | NJ | 2026-05-04 13:05 | Mesonet | 60 | 51 | 74 | 0.00 | 5 | SSE | 13 | S | |
| West Cape May | NJ | 2026-05-04 13:50 | Mesonet | 61 | 52 | 72 | 0.00 | 6 | SSE | 11 | S | |
| West Cape May | NJ | 2026-05-04 13:00 | Mesonet | 60 | 52 | 73 | 0.00 | 5 | SSE | 11 | S | |
| West Cape May | NJ | 2026-05-04 12:55 | Mesonet | 60 | 51 | 73 | 0.00 | 5 | SSE | 15 | SSE | |
| West Cape May | NJ | 2026-05-04 12:50 | Mesonet | 60 | 51 | 74 | 0.00 | 7 | SE | 13 | SSE | |
| West Cape May | NJ | 2026-05-04 12:45 | Mesonet | 60 | 52 | 73 | 0.00 | 9 | SSE | 12 | SSE | |
| West Cape May | NJ | 2026-05-04 12:40 | Mesonet | 60 | 52 | 73 | 0.00 | 7 | SSE | 12 | SSE | |
| West Cape May | NJ | 2026-05-04 12:35 | Mesonet | 60 | 52 | 74 | 0.00 | 10 | SSW | 12 | SSE | |
| West Cape May | NJ | 2026-05-04 13:45 | Mesonet | 61 | 53 | 74 | 0.00 | 5 | SSE | 11 | S | |
| West Cape May | NJ | 2026-05-04 13:55 | Mesonet | 60 | 52 | 75 | 0.00 | 7 | SE | 11 | SSE | |
| West Cape May | NJ | 2026-05-04 15:20 | Mesonet | 62 | 53 | 73 | 0.00 | 7 | SSE | 11 | S | |
| West Cape May | NJ | 2026-05-04 14:45 | Mesonet | 62 | 53 | 73 | 0.00 | 6 | SSE | 11 | SSE | |
| West Cape May | NJ | 2026-05-04 15:15 | Mesonet | 62 | 53 | 73 | 0.00 | 8 | SSE | 11 | SSE | |
| West Cape May | NJ | 2026-05-04 15:10 | Mesonet | 62 | 53 | 74 | 0.00 | 9 | S | 11 | SSE | |
| West Cape May | NJ | 2026-05-04 15:05 | Mesonet | 62 | 54 | 75 | 0.00 | 6 | SSE | 13 | S | |
| West Cape May | NJ | 2026-05-04 15:00 | Mesonet | 62 | 54 | 75 | 0.00 | 9 | S | 12 | SSE | |
| West Cape May | NJ | 2026-05-04 14:55 | Mesonet | 61 | 53 | 74 | 0.00 | 7 | S | 13 | S | |
| West Cape May | NJ | 2026-05-04 14:50 | Mesonet | 61 | 53 | 73 | 0.00 | 6 | S | 16 | S | |
| West Cape May | NJ | 2026-05-04 14:40 | Mesonet | 61 | 53 | 74 | 0.00 | 7 | SSW | 11 | SE | |
| West Cape May | NJ | 2026-05-04 14:00 | Mesonet | 61 | 53 | 75 | 0.00 | 5 | SE | 12 | S | |
| West Cape May | NJ | 2026-05-04 14:35 | Mesonet | 61 | 53 | 74 | 0.00 | 7 | SSE | 13 | SSW | |
| West Cape May | NJ | 2026-05-04 14:30 | Mesonet | 61 | 53 | 75 | 0.00 | 4 | SSE | 15 | SSE | |
| West Cape May | NJ | 2026-05-04 14:25 | Mesonet | 61 | 53 | 74 | 0.00 | 6 | SSE | 13 | S | |
| West Cape May | NJ | 2026-05-04 14:20 | Mesonet | 61 | 53 | 74 | 0.00 | 7 | S | 11 | SSE | |
| West Cape May | NJ | 2026-05-04 14:15 | Mesonet | 61 | 53 | 75 | 0.00 | 10 | S | 13 | SSE | |
| West Cape May | NJ | 2026-05-04 14:10 | Mesonet | 61 | 53 | 75 | 0.00 | 8 | SSE | 13 | S | |
| West Cape May | NJ | 2026-05-04 14:05 | Mesonet | 61 | 53 | 74 | 0.00 | 5 | SSE | 13 | S | |
| West Cape May | NJ | 2026-05-04 06:30 | Mesonet | 54 | 45 | 73 | 0.00 | 0 | W | 7 | SSW | |
| West Cape May | NJ | 2026-05-04 06:20 | Mesonet | 53 | 45 | 72 | 0.00 | 0 | WSW | 6 | WSW | |
| West Cape May | NJ | 2026-05-03 18:25 | Mesonet | 59 | 32 | 36 | 0.00 | 10 | WNW | 16 | NW | |
| West Cape May | NJ | 2026-05-03 22:05 | Mesonet | 53 | 42 | 65 | 0.00 | 0 | W | 0 | W | |
| West Cape May | NJ | 2026-05-03 22:35 | Mesonet | 53 | 39 | 60 | 0.00 | 0 | W | 5 | W | |
| West Cape May | NJ | 2026-05-03 22:30 | Mesonet | 53 | 40 | 60 | 0.00 | 0 | W | 4 | W | |
| West Cape May | NJ | 2026-05-03 22:25 | Mesonet | 53 | 40 | 61 | 0.00 | 1 | W | 4 | W | |
| West Cape May | NJ | 2026-05-03 22:20 | Mesonet | 52 | 41 | 65 | 0.00 | 0 | W | 1 | WSW | |
| West Cape May | NJ | 2026-05-03 22:15 | Mesonet | 52 | 42 | 68 | 0.00 | 0 | W | 2 | W | |
| West Cape May | NJ | 2026-05-03 22:10 | Mesonet | 53 | 42 | 67 | 0.00 | 0 | W | 2 | W | |
| West Cape May | NJ | 2026-05-03 22:00 | Mesonet | 53 | 41 | 63 | 0.00 | 0 | W | 5 | W | |
| West Cape May | NJ | 2026-05-03 22:45 | Mesonet | 53 | 40 | 60 | 0.00 | 3 | W | 5 | W | |
| West Cape May | NJ | 2026-05-03 21:55 | Mesonet | 53 | 40 | 62 | 0.00 | 0 | W | 4 | W | |
| West Cape May | NJ | 2026-05-03 21:50 | Mesonet | 53 | 40 | 61 | 0.00 | 0 | W | 4 | WNW | |
| West Cape May | NJ | 2026-05-03 21:45 | Mesonet | 53 | 41 | 62 | 0.00 | 1 | WSW | 5 | WSW | |
| West Cape May | NJ | 2026-05-03 21:40 | Mesonet | 53 | 41 | 63 | 0.00 | 0 | W | 0 | W | |
| West Cape May | NJ | 2026-05-03 21:35 | Mesonet | 54 | 42 | 63 | 0.00 | 0 | W | 0 | W | |
| West Cape May | NJ | 2026-05-03 21:30 | Mesonet | 54 | 42 | 62 | 0.00 | 0 | W | 4 | W | |
| West Cape May | NJ | 2026-05-03 22:40 | Mesonet | 53 | 39 | 60 | 0.00 | 3 | WSW | 4 | W | |
| West Cape May | NJ | 2026-05-03 22:50 | Mesonet | 53 | 40 | 61 | 0.00 | 1 | W | 5 | WSW | |
| West Cape May | NJ | 2026-05-03 21:20 | Mesonet | 55 | 40 | 56 | 0.00 | 4 | W | 5 | W | |
| West Cape May | NJ | 2026-05-03 23:35 | Mesonet | 53 | 39 | 59 | 0.00 | 0 | W | 8 | W | |
| West Cape May | NJ | 2026-05-04 00:05 | Mesonet | 52 | 40 | 62 | 0.00 | 2 | W | 5 | WSW | |
| West Cape May | NJ | 2026-05-04 00:00 | Mesonet | 53 | 39 | 60 | 0.00 | 5 | WSW | 7 | W | |
| West Cape May | NJ | 2026-05-03 23:55 | Mesonet | 52 | 39 | 60 | 0.00 | 4 | W | 5 | W | |
| West Cape May | NJ | 2026-05-03 23:50 | Mesonet | 53 | 39 | 59 | 0.00 | 0 | W | 7 | W | |
| West Cape May | NJ | 2026-05-03 23:45 | Mesonet | 53 | 39 | 60 | 0.00 | 2 | W | 5 | W | |
| West Cape May | NJ | 2026-05-03 23:40 | Mesonet | 53 | 39 | 58 | 0.00 | 0 | WSW | 9 | WSW | |
| West Cape May | NJ | 2026-05-03 23:30 | Mesonet | 53 | 39 | 60 | 0.00 | 2 | WSW | 5 | WSW | |
| West Cape May | NJ | 2026-05-03 22:55 | Mesonet | 53 | 40 | 61 | 0.00 | 3 | W | 5 | WSW | |
| West Cape May | NJ | 2026-05-03 23:25 | Mesonet | 53 | 39 | 60 | 0.00 | 0 | W | 5 | SW | |
| West Cape May | NJ | 2026-05-03 23:20 | Mesonet | 53 | 39 | 59 | 0.00 | 2 | WSW | 6 | WSW | |
| West Cape May | NJ | 2026-05-03 23:15 | Mesonet | 53 | 39 | 59 | 0.00 | 5 | WSW | 7 | W | |
| West Cape May | NJ | 2026-05-03 23:10 | Mesonet | 53 | 39 | 59 | 0.00 | 2 | W | 6 | WNW | |
| West Cape May | NJ | 2026-05-03 23:05 | Mesonet | 53 | 39 | 60 | 0.00 | 4 | W | 6 | W | |
| West Cape May | NJ | 2026-05-03 23:00 | Mesonet | 53 | 40 | 61 | 0.00 | 3 | W | 5 | WNW | |
| West Cape May | NJ | 2026-05-03 21:25 | Mesonet | 54 | 41 | 61 | 0.00 | 0 | W | 5 | WNW | |
| West Cape May | NJ | 2026-05-03 21:15 | Mesonet | 55 | 38 | 52 | 0.00 | 3 | W | 5 | W | |
| West Cape May | NJ | 2026-05-04 00:15 | Mesonet | 52 | 40 | 63 | 0.00 | 3 | W | 6 | W | |
| West Cape May | NJ | 2026-05-03 19:05 | Mesonet | 58 | 34 | 39 | 0.00 | 6 | NW | 12 | NW | |
| West Cape May | NJ | 2026-05-03 19:35 | Mesonet | 57 | 38 | 48 | 0.00 | 5 | NW | 10 | NW | |
| West Cape May | NJ | 2026-05-03 19:30 | Mesonet | 57 | 37 | 47 | 0.00 | 5 | WNW | 7 | NNW | |
| West Cape May | NJ | 2026-05-03 19:25 | Mesonet | 57 | 37 | 46 | 0.00 | 5 | WNW | 9 | NW | |
| West Cape May | NJ | 2026-05-03 19:20 | Mesonet | 58 | 36 | 44 | 0.00 | 4 | WNW | 7 | NW | |
| West Cape May | NJ | 2026-05-03 19:15 | Mesonet | 58 | 35 | 42 | 0.00 | 8 | NW | 10 | NW | |
| West Cape May | NJ | 2026-05-03 19:10 | Mesonet | 58 | 35 | 42 | 0.00 | 5 | NW | 11 | WNW | |
| West Cape May | NJ | 2026-05-03 19:00 | Mesonet | 58 | 37 | 44 | 0.00 | 9 | WNW | 12 | WNW | |
| West Cape May | NJ | 2026-05-03 19:45 | Mesonet | 56 | 37 | 48 | 0.00 | 4 | NW | 8 | NW | |
| West Cape May | NJ | 2026-05-03 18:55 | Mesonet | 58 | 36 | 43 | 0.00 | 5 | WNW | 9 | NNW | |
| West Cape May | NJ | 2026-05-03 18:50 | Mesonet | 58 | 33 | 38 | 0.00 | 7 | NNW | 12 | NW | |
| West Cape May | NJ | 2026-05-03 18:45 | Mesonet | 59 | 34 | 40 | 0.00 | 2 | NNW | 12 | NW | |
| West Cape May | NJ | 2026-05-03 18:40 | Mesonet | 59 | 35 | 41 | 0.00 | 5 | NW | 10 | NW | |
| West Cape May | NJ | 2026-05-03 18:35 | Mesonet | 59 | 34 | 39 | 0.00 | 10 | WNW | 14 | NW | |
| West Cape May | NJ | 2026-05-03 18:30 | Mesonet | 59 | 32 | 37 | 0.00 | 11 | NW | 16 | NNW | |
| West Cape May | NJ | 2026-05-03 19:40 | Mesonet | 57 | 37 | 47 | 0.00 | 6 | NW | 10 | WNW | |
| West Cape May | NJ | 2026-05-03 19:50 | Mesonet | 56 | 37 | 48 | 0.00 | 6 | NW | 8 | NW | |
| West Cape May | NJ | 2026-05-03 21:10 | Mesonet | 55 | 38 | 52 | 0.00 | 5 | W | 5 | WNW | |
| West Cape May | NJ | 2026-05-03 20:35 | Mesonet | 55 | 36 | 49 | 0.00 | 4 | WNW | 7 | W | |
| West Cape May | NJ | 2026-05-03 21:05 | Mesonet | 55 | 38 | 51 | 0.00 | 3 | WNW | 7 | W | |
| West Cape May | NJ | 2026-05-03 21:00 | Mesonet | 55 | 38 | 52 | 0.00 | 2 | WNW | 6 | WNW | |
| West Cape May | NJ | 2026-05-03 20:55 | Mesonet | 55 | 38 | 53 | 0.00 | 7 | W | 7 | W | |
| West Cape May | NJ | 2026-05-03 20:50 | Mesonet | 55 | 38 | 53 | 0.00 | 1 | WNW | 6 | W | |
| West Cape May | NJ | 2026-05-03 20:45 | Mesonet | 55 | 37 | 51 | 0.00 | 3 | W | 5 | WNW | |
| West Cape May | NJ | 2026-05-03 20:40 | Mesonet | 56 | 37 | 50 | 0.00 | 1 | WNW | 6 | WNW | |
| West Cape May | NJ | 2026-05-03 20:30 | Mesonet | 55 | 37 | 49 | 0.00 | 2 | WNW | 6 | NW | |
| West Cape May | NJ | 2026-05-03 19:55 | Mesonet | 56 | 37 | 49 | 0.00 | 4 | NNW | 9 | NW | |
| West Cape May | NJ | 2026-05-03 20:25 | Mesonet | 56 | 37 | 49 | 0.00 | 4 | WNW | 7 | WNW | |
| West Cape May | NJ | 2026-05-03 20:20 | Mesonet | 56 | 37 | 49 | 0.00 | 3 | W | 7 | NW | |
| West Cape May | NJ | 2026-05-03 20:15 | Mesonet | 55 | 37 | 50 | 0.00 | 2 | WNW | 6 | NW | |
| West Cape May | NJ | 2026-05-03 20:10 | Mesonet | 56 | 38 | 51 | 0.00 | 4 | WNW | 7 | W | |
| West Cape May | NJ | 2026-05-03 20:05 | Mesonet | 56 | 38 | 51 | 0.00 | 5 | WNW | 9 | WNW | |
| West Cape May | NJ | 2026-05-03 20:00 | Mesonet | 56 | 38 | 51 | 0.00 | 1 | WNW | 6 | W | |
| West Cape May | NJ | 2026-05-04 00:10 | Mesonet | 53 | 40 | 62 | 0.00 | 3 | W | 5 | W | |
| West Cape May | NJ | 2026-05-04 00:20 | Mesonet | 52 | 40 | 62 | 0.00 | 0 | W | 7 | W | |
| West Cape May | NJ | 2026-05-04 06:15 | Mesonet | 53 | 45 | 72 | 0.00 | 4 | S | 9 | W | |
| West Cape May | NJ | 2026-05-04 04:10 | Mesonet | 53 | 43 | 70 | 0.00 | 4 | NW | 14 | W | |
| West Cape May | NJ | 2026-05-04 04:40 | Mesonet | 53 | 43 | 69 | 0.00 | 3 | WSW | 13 | WSW | |
| West Cape May | NJ | 2026-05-04 04:35 | Mesonet | 53 | 43 | 69 | 0.00 | 5 | NW | 11 | WNW | |
| West Cape May | NJ | 2026-05-04 04:30 | Mesonet | 53 | 43 | 70 | 0.00 | 9 | WNW | 11 | W | |
| West Cape May | NJ | 2026-05-04 04:25 | Mesonet | 53 | 43 | 70 | 0.00 | 2 | WSW | 10 | WNW | |
| West Cape May | NJ | 2026-05-04 04:20 | Mesonet | 53 | 43 | 70 | 0.00 | 0 | W | 10 | SW | |
| West Cape May | NJ | 2026-05-04 04:15 | Mesonet | 53 | 43 | 70 | 0.00 | 4 | NW | 11 | WSW | |
| West Cape May | NJ | 2026-05-04 04:05 | Mesonet | 53 | 43 | 69 | 0.00 | 10 | W | 11 | W | |
| West Cape May | NJ | 2026-05-04 04:50 | Mesonet | 53 | 43 | 70 | 0.00 | 2 | SSW | 10 | W | |
| West Cape May | NJ | 2026-05-04 04:00 | Mesonet | 52 | 42 | 68 | 0.00 | 5 | NW | 13 | WNW | |
| West Cape May | NJ | 2026-05-04 03:55 | Mesonet | 52 | 42 | 68 | 0.00 | 5 | W | 12 | WSW | |
| West Cape May | NJ | 2026-05-04 03:50 | Mesonet | 52 | 42 | 67 | 0.00 | 10 | W | 11 | WNW | |
| West Cape May | NJ | 2026-05-04 03:45 | Mesonet | 52 | 41 | 66 | 0.00 | 5 | WSW | 11 | WSW | |
| West Cape May | NJ | 2026-05-04 03:40 | Mesonet | 52 | 41 | 65 | 0.00 | 4 | WNW | 13 | W | |
| West Cape May | NJ | 2026-05-04 03:35 | Mesonet | 52 | 40 | 63 | 0.00 | 5 | NW | 12 | W | |
| West Cape May | NJ | 2026-05-04 04:45 | Mesonet | 53 | 43 | 70 | 0.00 | 6 | WNW | 11 | WNW | |
| West Cape May | NJ | 2026-05-04 04:55 | Mesonet | 53 | 43 | 70 | 0.00 | 4 | W | 11 | W | |
| West Cape May | NJ | 2026-05-04 03:25 | Mesonet | 52 | 40 | 62 | 0.00 | 4 | WNW | 13 | W | |
| West Cape May | NJ | 2026-05-04 05:40 | Mesonet | 53 | 44 | 71 | 0.00 | 4 | WSW | 11 | W | |
| West Cape May | NJ | 2026-05-04 06:10 | Mesonet | 53 | 45 | 72 | 0.00 | 0 | WSW | 5 | WSW | |
| West Cape May | NJ | 2026-05-04 06:05 | Mesonet | 53 | 44 | 72 | 0.00 | 0 | W | 9 | W | |
| West Cape May | NJ | 2026-05-04 06:00 | Mesonet | 53 | 44 | 72 | 0.00 | 2 | SW | 9 | W | |
| West Cape May | NJ | 2026-05-04 05:55 | Mesonet | 53 | 44 | 71 | 0.00 | 3 | SW | 13 | W | |
| West Cape May | NJ | 2026-05-04 05:50 | Mesonet | 53 | 44 | 71 | 0.00 | 7 | SSW | 11 | W | |
| West Cape May | NJ | 2026-05-04 05:45 | Mesonet | 53 | 44 | 71 | 0.00 | 8 | W | 9 | WSW | |
| West Cape May | NJ | 2026-05-04 05:35 | Mesonet | 53 | 44 | 71 | 0.00 | 0 | WNW | 11 | WSW | |
| West Cape May | NJ | 2026-05-04 05:00 | Mesonet | 53 | 44 | 71 | 0.00 | 4 | SW | 10 | W | |
| West Cape May | NJ | 2026-05-04 05:30 | Mesonet | 53 | 44 | 71 | 0.00 | 2 | WNW | 11 | SW | |
| West Cape May | NJ | 2026-05-04 05:25 | Mesonet | 53 | 44 | 72 | 0.00 | 1 | WSW | 6 | NNW | |
| West Cape May | NJ | 2026-05-04 05:20 | Mesonet | 53 | 44 | 72 | 0.00 | 5 | W | 13 | W | |
| West Cape May | NJ | 2026-05-04 05:15 | Mesonet | 53 | 44 | 72 | 0.00 | 2 | WSW | 12 | WNW | |
| West Cape May | NJ | 2026-05-04 05:10 | Mesonet | 53 | 44 | 72 | 0.00 | 7 | NW | 11 | W | |
| West Cape May | NJ | 2026-05-04 05:05 | Mesonet | 53 | 44 | 71 | 0.00 | 3 | W | 10 | W | |
| West Cape May | NJ | 2026-05-04 03:30 | Mesonet | 52 | 40 | 62 | 0.00 | 4 | W | 16 | WNW | |
| West Cape May | NJ | 2026-05-04 03:20 | Mesonet | 52 | 39 | 62 | 0.00 | 5 | SW | 12 | WSW | |
| West Cape May | NJ | 2026-05-04 00:25 | Mesonet | 52 | 39 | 61 | 0.00 | 4 | W | 5 | WSW | |
| West Cape May | NJ | 2026-05-04 01:05 | Mesonet | 53 | 41 | 64 | 0.00 | 4 | W | 5 | W | |
| West Cape May | NJ | 2026-05-04 01:35 | Mesonet | 53 | 39 | 60 | 0.00 | 6 | W | 11 | WNW | |
| West Cape May | NJ | 2026-05-04 01:30 | Mesonet | 53 | 39 | 60 | 0.00 | 5 | W | 9 | W | |
| West Cape May | NJ | 2026-05-04 01:25 | Mesonet | 53 | 40 | 61 | 0.00 | 5 | WNW | 10 | SW | |
| West Cape May | NJ | 2026-05-04 01:20 | Mesonet | 53 | 40 | 63 | 0.00 | 0 | W | 8 | WNW | |
| West Cape May | NJ | 2026-05-04 01:15 | Mesonet | 53 | 40 | 62 | 0.00 | 5 | W | 7 | W | |
| West Cape May | NJ | 2026-05-04 01:10 | Mesonet | 53 | 40 | 63 | 0.00 | 4 | W | 7 | WSW | |
| West Cape May | NJ | 2026-05-04 01:00 | Mesonet | 53 | 41 | 63 | 0.00 | 0 | W | 10 | WSW | |
| West Cape May | NJ | 2026-05-04 01:45 | Mesonet | 53 | 38 | 57 | 0.00 | 6 | NW | 11 | SW | |
| West Cape May | NJ | 2026-05-04 00:55 | Mesonet | 53 | 40 | 63 | 0.00 | 4 | W | 7 | W | |
| West Cape May | NJ | 2026-05-04 00:50 | Mesonet | 53 | 40 | 63 | 0.00 | 5 | W | 7 | W | |
| West Cape May | NJ | 2026-05-04 00:45 | Mesonet | 53 | 40 | 62 | 0.00 | 4 | W | 6 | W | |
| West Cape May | NJ | 2026-05-04 00:40 | Mesonet | 53 | 39 | 61 | 0.00 | 3 | W | 6 | W | |
| West Cape May | NJ | 2026-05-04 00:35 | Mesonet | 53 | 39 | 60 | 0.00 | 4 | WNW | 7 | WSW | |
| West Cape May | NJ | 2026-05-04 00:30 | Mesonet | 53 | 39 | 60 | 0.00 | 0 | WNW | 10 | W | |
| West Cape May | NJ | 2026-05-04 01:40 | Mesonet | 53 | 39 | 59 | 0.00 | 4 | SW | 12 | WSW | |
| West Cape May | NJ | 2026-05-04 01:50 | Mesonet | 53 | 38 | 57 | 0.00 | 4 | W | 11 | W | |
| West Cape May | NJ | 2026-05-04 03:15 | Mesonet | 52 | 39 | 59 | 0.00 | 7 | WSW | 16 | WNW | |
| West Cape May | NJ | 2026-05-04 02:40 | Mesonet | 53 | 38 | 58 | 0.00 | 5 | WNW | 13 | WSW | |
| West Cape May | NJ | 2026-05-04 03:10 | Mesonet | 52 | 39 | 60 | 0.00 | 5 | NW | 16 | W | |
| West Cape May | NJ | 2026-05-04 03:05 | Mesonet | 52 | 39 | 61 | 0.00 | 2 | NW | 16 | W | |
| West Cape May | NJ | 2026-05-04 03:00 | Mesonet | 52 | 39 | 60 | 0.00 | 4 | WNW | 16 | SW | |
| West Cape May | NJ | 2026-05-04 02:55 | Mesonet | 52 | 38 | 58 | 0.00 | 4 | SSW | 14 | SSW | |
| West Cape May | NJ | 2026-05-04 02:50 | Mesonet | 52 | 38 | 59 | 0.00 | 4 | WSW | 11 | WNW | |
| West Cape May | NJ | 2026-05-04 02:45 | Mesonet | 52 | 38 | 59 | 0.00 | 6 | WSW | 11 | SW | |
| West Cape May | NJ | 2026-05-04 02:35 | Mesonet | 52 | 38 | 59 | 0.00 | 2 | W | 11 | SSW | |
| West Cape May | NJ | 2026-05-04 01:55 | Mesonet | 53 | 39 | 60 | 0.00 | 5 | W | 8 | WNW | |
| West Cape May | NJ | 2026-05-04 02:30 | Mesonet | 52 | 39 | 60 | 0.00 | 5 | WNW | 11 | WNW | |
| West Cape May | NJ | 2026-05-04 02:25 | Mesonet | 52 | 39 | 61 | 0.00 | 4 | W | 8 | W | |
| West Cape May | NJ | 2026-05-04 02:20 | Mesonet | 53 | 40 | 61 | 0.00 | 5 | SW | 10 | WNW | |
| West Cape May | NJ | 2026-05-04 02:15 | Mesonet | 53 | 39 | 60 | 0.00 | 3 | W | 11 | WNW | |
| West Cape May | NJ | 2026-05-04 02:10 | Mesonet | 53 | 39 | 59 | 0.00 | 5 | WSW | 11 | W | |
| West Cape May | NJ | 2026-05-04 02:05 | Mesonet | 53 | 39 | 60 | 0.00 | 1 | WNW | 10 | W | |
| West Cape May | NJ | 2026-05-04 02:00 | Mesonet | 53 | 39 | 60 | 0.00 | 6 | WSW | 13 | W | |
| West Cape May | NJ | 2026-05-04 18:20 | Mesonet | 63 | 51 | 66 | 0.00 | 6 | SSW | 16 | SSW |
data collection created in 0.058726072311401 (queried in 0.013220) rendered in: 0.00084209442138672

